Time;durP1;ratioP1;P1;durP2;ratioP2;P2;SDS_P1;SDS_P2;PMS_P1;PMS_P2;Temp;Humidity;BMP_temperature;BMP_pressure;BME280_temperature;BME280_humidity;BME280_pressure;Samples;Min_cycle;Max_cycle;Signal;HPM_P1;HPM_P2
2021/08/01 00:01:47;;;;;;;6.40;3.00;;;;;;;15.26;69.13;95077.59;5114669;27;20268;-76
2021/08/01 00:04:12;;;;;;;7.47;2.90;;;;;;;15.23;69.49;95093.66;5114688;27;20187;-77
2021/08/01 00:06:37;;;;;;;4.30;3.10;;;;;;;15.25;69.94;95078.59;5114614;27;20307;-76
2021/08/01 00:09:02;;;;;;;4.40;3.10;;;;;;;15.17;70.05;95073.47;5114593;27;20176;-75
2021/08/01 00:11:28;;;;;;;5.03;3.10;;;;;;;15.12;69.60;95081.09;5114238;27;20198;-76
2021/08/01 00:13:53;;;;;;;5.55;3.03;;;;;;;15.16;70.53;95069.25;5114580;28;20586;-77
2021/08/01 00:16:18;;;;;;;5.03;3.28;;;;;;;15.15;70.55;95079.91;5114277;27;20202;-77
2021/08/01 00:18:44;;;;;;;6.47;3.30;;;;;;;15.10;71.68;95066.56;5132671;27;20171;-77
2021/08/01 00:21:09;;;;;;;5.65;3.60;;;;;;;15.10;72.38;95071.78;5132563;27;20174;-75
2021/08/01 00:23:34;;;;;;;4.53;3.58;;;;;;;15.02;72.74;95064.91;5132353;28;20191;-77
2021/08/01 00:26:00;;;;;;;6.82;3.65;;;;;;;14.89;72.90;95057.72;5132853;28;20202;-77
2021/08/01 00:28:25;;;;;;;6.78;3.08;;;;;;;14.88;72.78;95060.53;5114200;28;20171;-77
2021/08/01 00:30:50;;;;;;;5.93;3.83;;;;;;;14.92;72.08;95053.94;5114351;28;20231;-77
2021/08/01 00:33:16;;;;;;;4.88;3.13;;;;;;;14.95;72.96;95053.56;5098270;27;20259;-77
2021/08/01 00:35:41;;;;;;;5.40;4.35;;;;;;;14.79;74.18;95044.16;5101052;27;20191;-77
2021/08/01 00:38:07;;;;;;;7.20;3.90;;;;;;;14.94;72.94;95046.72;5101325;27;20182;-77
2021/08/01 00:40:33;;;;;;;6.53;3.60;;;;;;;14.93;73.39;95045.09;5136888;27;20167;-77
2021/08/01 00:42:58;;;;;;;5.40;3.63;;;;;;;14.94;73.18;95047.53;5097713;28;20198;-76
2021/08/01 00:45:24;;;;;;;5.15;3.47;;;;;;;14.78;73.64;95039.94;5116763;28;20202;-77
2021/08/01 00:47:49;;;;;;;7.20;3.35;;;;;;;14.63;74.60;95041.78;5098740;28;20176;-76
2021/08/01 00:50:14;;;;;;;5.88;3.58;;;;;;;14.54;74.84;95035.84;5116918;28;20539;-75
2021/08/01 00:52:40;;;;;;;5.68;3.72;;;;;;;14.56;75.06;95041.69;5120403;28;20540;-77
2021/08/01 00:55:07;;;;;;;5.80;3.75;;;;;;;14.57;74.89;95034.66;5102087;28;20226;-77
2021/08/01 00:57:32;;;;;;;7.88;4.00;;;;;;;14.76;74.82;95034.09;5104779;27;20175;-78
2021/08/01 00:59:58;;;;;;;7.95;3.92;;;;;;;14.82;74.08;95035.13;5118674;27;20591;-77
2021/08/01 01:02:29;;;;;;;5.82;3.60;;;;;;;14.83;73.64;95034.94;5118381;27;20194;-77
2021/08/01 01:04:56;;;;;;;6.70;3.38;;;;;;;14.76;74.56;95033.28;5118330;27;20505;-77
2021/08/01 01:07:34;;;;;;;5.90;3.65;;;;;;;14.76;75.23;95036.69;5101232;27;20642;-77
2021/08/01 01:10:02;;;;;;;5.15;3.55;;;;;;;14.75;74.61;95035.06;5101229;27;20174;-77
2021/08/01 01:12:34;;;;;;;4.75;3.85;;;;;;;14.71;75.02;95039.03;5118153;27;20175;-77
2021/08/01 01:15:00;;;;;;;7.53;4.18;;;;;;;14.74;75.22;95034.25;5118295;27;20295;-77
2021/08/01 01:17:29;;;;;;;4.63;3.97;;;;;;;14.70;75.29;95034.81;5100976;27;20307;-77
2021/08/01 01:20:12;;;;;;;6.50;3.80;;;;;;;14.67;75.69;95029.97;5118322;27;20164;-78
2021/08/01 01:23:02;;;;;;;5.37;3.67;;;;;;;14.49;76.40;95026.94;5136527;27;20601;-78
2021/08/01 01:25:40;;;;;;;4.00;3.47;;;;;;;14.33;77.52;95023.53;5136526;27;20670;-77
2021/08/01 01:28:11;;;;;;;5.57;3.25;;;;;;;14.26;77.77;95027.88;5136276;27;20220;-76
2021/08/01 01:30:44;;;;;;;4.60;3.88;;;;;;;14.20;78.03;95033.81;5101252;27;20624;-77
2021/08/01 01:33:11;;;;;;;5.25;3.70;;;;;;;14.18;78.35;95030.56;5117698;27;20163;-77
2021/08/01 01:35:38;;;;;;;5.18;3.45;;;;;;;14.20;78.00;95039.03;5117803;27;20199;-77
2021/08/01 01:38:04;;;;;;;5.38;3.50;;;;;;;14.13;79.23;95027.69;5117976;27;20171;-76
2021/08/01 01:40:30;;;;;;;5.05;4.05;;;;;;;14.18;78.88;95031.38;5118038;27;20175;-76
2021/08/01 01:42:56;;;;;;;3.88;3.50;;;;;;;14.15;79.87;95023.91;5117618;27;20197;-77
2021/08/01 01:45:22;;;;;;;6.43;3.93;;;;;;;14.00;80.87;95024.91;5116393;27;20670;-77
2021/08/01 01:47:50;;;;;;;4.20;3.70;;;;;;;14.00;80.93;95032.75;5101073;27;20492;-77
2021/08/01 01:50:19;;;;;;;11.00;4.10;;;;;;;14.03;80.49;95027.97;5118172;27;20175;-77
2021/08/01 01:52:48;;;;;;;7.70;4.07;;;;;;;14.01;80.25;95029.97;5117927;27;20188;-76
2021/08/01 01:55:15;;;;;;;4.40;3.60;;;;;;;14.00;80.94;95024.91;5117851;27;20210;-77
2021/08/01 01:57:41;;;;;;;7.77;4.30;;;;;;;13.94;81.44;95023.84;5100690;27;20220;-77
2021/08/01 02:00:07;;;;;;;5.90;3.80;;;;;;;13.90;81.11;95022.59;5118155;27;20179;-76
2021/08/01 02:02:33;;;;;;;8.80;4.13;;;;;;;14.00;81.14;95022.31;5117698;27;20186;-76
2021/08/01 02:04:58;;;;;;;6.67;4.00;;;;;;;13.99;80.86;95015.47;5100351;27;20219;-77
2021/08/01 02:07:23;;;;;;;5.43;3.43;;;;;;;13.97;80.65;95025.28;5117399;27;20557;-77
2021/08/01 02:09:58;;;;;;;5.57;4.30;;;;;;;13.94;81.30;95023.03;5100793;27;20670;-76
2021/08/01 02:12:36;;;;;;;4.33;3.93;;;;;;;14.11;80.49;95020.03;5117140;27;20549;-78
2021/08/01 02:15:08;;;;;;;5.40;4.17;;;;;;;14.17;80.48;95013.28;5117428;27;20265;-77
2021/08/01 02:18:01;;;;;;;5.73;3.40;;;;;;;14.17;80.00;95015.91;5117257;27;20186;-77
2021/08/01 02:20:47;;;;;;;4.90;4.03;;;;;;;14.15;80.54;95013.47;5096509;27;20341;-77
2021/08/01 02:23:24;;;;;;;8.53;3.97;;;;;;;14.11;80.36;95014.81;5116980;27;20247;-77
2021/08/01 02:25:51;;;;;;;5.03;3.80;;;;;;;14.10;80.48;95007.16;5116957;27;20570;-76
2021/08/01 02:28:18;;;;;;;6.20;4.37;;;;;;;14.17;80.33;95014.09;5100158;27;20178;-77
2021/08/01 02:30:44;;;;;;;8.80;4.40;;;;;;;14.15;80.34;95017.88;5117163;27;20171;-77
2021/08/01 02:33:09;;;;;;;5.33;3.80;;;;;;;14.20;80.38;95018.13;5135128;27;20167;-77
2021/08/01 02:35:35;;;;;;;6.43;4.23;;;;;;;14.21;81.11;95014.53;5116852;27;20453;-78
2021/08/01 02:38:01;;;;;;;5.53;4.20;;;;;;;14.20;80.31;95006.88;5117238;27;20183;-77
2021/08/01 02:40:29;;;;;;;7.20;4.10;;;;;;;14.15;79.94;95007.44;5099691;27;20273;-77
2021/08/01 02:42:55;;;;;;;6.83;3.93;;;;;;;14.26;79.80;95006.97;5116764;27;20634;-77
2021/08/01 02:45:21;;;;;;;6.27;4.53;;;;;;;14.28;79.68;95007.59;5117102;27;20195;-77
2021/08/01 02:47:49;;;;;;;9.10;4.57;;;;;;;14.28;79.33;95010.19;5099893;27;20175;-77
2021/08/01 02:50:16;;;;;;;6.77;4.37;;;;;;;14.31;79.18;95009.00;5100154;27;20177;-77
2021/08/01 02:52:47;;;;;;;5.87;4.00;;;;;;;14.39;78.03;95006.28;5116493;27;20541;-77
2021/08/01 02:55:13;;;;;;;6.43;4.33;;;;;;;14.36;78.15;95002.25;5116585;27;20203;-76
2021/08/01 02:57:39;;;;;;;6.93;4.50;;;;;;;14.29;78.59;94998.75;5116350;27;20175;-76
2021/08/01 03:00:05;;;;;;;7.50;5.03;;;;;;;14.29;79.11;94996.16;5116484;27;20202;-77
2021/08/01 03:02:31;;;;;;;5.90;4.50;;;;;;;14.30;78.78;94999.56;5116642;27;20202;-78
2021/08/01 03:04:57;;;;;;;6.60;4.83;;;;;;;14.23;79.26;94999.50;5116151;27;20604;-75
2021/08/01 03:07:23;;;;;;;5.27;4.20;;;;;;;14.13;79.74;95006.78;5099333;27;20494;-76
2021/08/01 03:09:52;;;;;;;5.97;4.00;;;;;;;14.15;79.57;95000.41;5116316;27;20176;-77
2021/08/01 03:12:18;;;;;;;6.77;3.87;;;;;;;14.20;79.85;95006.88;5134841;27;20175;-77
2021/08/01 03:14:43;;;;;;;6.47;4.10;;;;;;;14.14;79.80;95003.22;5134404;27;20191;-77
2021/08/01 03:17:08;;;;;;;7.07;4.30;;;;;;;14.06;80.00;94998.09;5099192;27;20179;-77
2021/08/01 03:19:35;;;;;;;5.53;3.63;;;;;;;14.00;80.68;95004.03;5134345;27;20201;-78
2021/08/01 03:22:01;;;;;;;9.07;4.03;;;;;;;14.00;81.00;95004.84;5115768;27;20383;-77
2021/08/01 03:24:26;;;;;;;5.63;3.67;;;;;;;14.06;80.50;95003.31;5116185;27;20294;-77
2021/08/01 03:26:52;;;;;;;8.57;4.33;;;;;;;13.93;81.83;95008.34;5115950;27;20182;-77
2021/08/01 03:29:17;;;;;;;4.73;4.10;;;;;;;13.93;81.66;95006.56;5098936;27;20581;-77
2021/08/01 03:31:42;;;;;;;6.37;3.90;;;;;;;13.84;81.90;95008.44;5115500;27;20262;-77
2021/08/01 03:34:08;;;;;;;9.13;4.90;;;;;;;13.88;81.73;95012.34;5116026;27;20661;-77
2021/08/01 03:36:33;;;;;;;8.33;4.87;;;;;;;13.87;81.87;95009.91;5115680;27;20220;-77
2021/08/01 03:38:58;;;;;;;6.97;4.27;;;;;;;13.88;81.64;95008.91;5099223;27;20175;-77
2021/08/01 03:41:24;;;;;;;4.90;4.17;;;;;;;13.82;81.48;95020.88;5115351;27;20178;-77
2021/08/01 03:43:49;;;;;;;8.67;4.33;;;;;;;13.92;80.68;95017.19;5115673;27;20191;-77
2021/08/01 03:46:14;;;;;;;6.70;4.30;;;;;;;14.00;80.84;95023.13;5115440;27;20276;-77
2021/08/01 03:48:40;;;;;;;5.33;3.90;;;;;;;13.97;80.22;95022.69;5098617;27;20686;-78
2021/08/01 03:51:05;;;;;;;4.63;3.77;;;;;;;13.92;80.52;95014.56;5133906;27;20362;-78
2021/08/01 03:53:31;;;;;;;7.67;4.33;;;;;;;13.93;80.82;95026.63;5115523;27;20171;-78
2021/08/01 03:55:57;;;;;;;6.37;4.43;;;;;;;13.79;81.25;95021.25;5098480;27;20741;-77
2021/08/01 03:58:22;;;;;;;6.57;4.73;;;;;;;13.89;81.87;95021.78;5115382;27;20179;-77
2021/08/01 04:00:48;;;;;;;8.43;4.37;;;;;;;13.86;81.30;95018.69;5115266;27;20358;-77
2021/08/01 04:03:13;;;;;;;6.27;4.80;;;;;;;13.93;81.32;95011.78;5115073;27;22470;-77
2021/08/01 04:05:38;;;;;;;6.77;4.40;;;;;;;13.91;81.31;95021.59;5098200;27;20199;-78
2021/08/01 04:08:04;;;;;;;6.43;4.37;;;;;;;13.85;81.52;95025.72;5114624;27;20183;-78
2021/08/01 04:10:29;;;;;;;8.40;4.43;;;;;;;13.80;81.65;95019.44;5115306;27;20190;-78
2021/08/01 04:12:54;;;;;;;6.83;4.53;;;;;;;13.77;82.44;95023.19;5114872;27;20177;-77
2021/08/01 04:15:20;;;;;;;5.57;4.40;;;;;;;13.81;81.60;95023.66;5114738;28;20198;-77
2021/08/01 04:17:45;;;;;;;7.53;4.20;;;;;;;13.87;81.81;95021.16;5097874;27;20183;-77
2021/08/01 04:20:11;;;;;;;5.00;4.30;;;;;;;13.83;81.94;95024.28;5114925;28;20205;-78
2021/08/01 04:22:37;;;;;;;7.57;4.67;;;;;;;13.80;81.87;95028.09;5097629;28;20187;-78
2021/08/01 04:25:02;;;;;;;6.97;4.10;;;;;;;13.78;81.88;95040.50;5114873;28;20223;-77
2021/08/01 04:27:28;;;;;;;7.70;4.47;;;;;;;13.76;82.36;95037.25;5098134;28;20174;-78
2021/08/01 04:29:53;;;;;;;6.43;4.30;;;;;;;13.85;82.51;95025.72;5114717;28;20183;-78
2021/08/01 04:32:18;;;;;;;7.67;4.80;;;;;;;13.93;82.61;95037.88;5114633;28;20673;-78
2021/08/01 04:34:43;;;;;;;7.17;4.67;;;;;;;13.93;82.83;95040.50;5133340;28;20191;-77
2021/08/01 04:37:09;;;;;;;7.77;4.70;;;;;;;13.98;82.71;95039.97;5114960;28;20206;-78
2021/08/01 04:39:34;;;;;;;5.93;4.17;;;;;;;13.89;82.89;95034.84;5097807;28;20652;-77
2021/08/01 04:41:59;;;;;;;12.13;4.67;;;;;;;13.88;82.58;95033.22;5114457;28;20179;-78
2021/08/01 04:44:25;;;;;;;5.47;4.20;;;;;;;13.95;82.95;95032.47;5097647;28;20214;-78
2021/08/01 04:46:50;;;;;;;6.13;4.53;;;;;;;13.85;83.56;95033.56;5114757;28;20180;-77
2021/08/01 04:49:15;;;;;;;7.87;4.70;;;;;;;13.77;83.93;95033.63;5133130;28;20317;-77
2021/08/01 04:51:40;;;;;;;6.03;4.77;;;;;;;13.83;83.85;95032.13;5114536;28;20186;-77
2021/08/01 04:54:06;;;;;;;9.20;4.57;;;;;;;13.78;83.97;95032.69;5097608;28;20626;-76
2021/08/01 04:56:31;;;;;;;9.07;4.87;;;;;;;13.80;83.90;95029.88;5097318;28;20237;-77
2021/08/01 04:58:56;;;;;;;6.13;4.87;;;;;;;13.76;84.26;95032.03;5132974;28;20177;-77
2021/08/01 05:01:22;;;;;;;6.10;4.80;;;;;;;13.76;84.12;95029.41;5114433;28;20180;-78
2021/08/01 05:03:47;;;;;;;6.67;4.70;;;;;;;13.79;84.23;95033.47;5114384;28;20195;-77
2021/08/01 05:06:12;;;;;;;6.37;4.20;;;;;;;13.68;84.41;95029.50;5114609;28;20191;-78
2021/08/01 05:08:38;;;;;;;8.87;4.73;;;;;;;13.76;84.69;95033.81;5132873;28;20183;-78
2021/08/01 05:11:03;;;;;;;6.53;4.37;;;;;;;13.84;84.73;95029.31;5097489;28;20543;-77
2021/08/01 05:13:29;;;;;;;6.30;4.40;;;;;;;13.94;84.61;95028.25;5114185;28;20665;-77
2021/08/01 05:15:54;;;;;;;6.73;4.30;;;;;;;13.95;83.98;95029.84;5114430;28;20229;-78
2021/08/01 05:18:23;;;;;;;5.57;4.73;;;;;;;13.94;84.44;95033.47;5114530;28;20258;-78
2021/08/01 05:20:48;;;;;;;8.00;4.90;;;;;;;13.91;84.34;95032.03;5118609;27;20185;-77
2021/08/01 05:23:13;;;;;;;8.47;5.00;;;;;;;13.89;84.49;95028.81;5118103;27;20270;-77
2021/08/01 05:25:39;;;;;;;6.10;4.67;;;;;;;13.93;84.06;95026.63;5100918;27;20285;-78
2021/08/01 05:28:04;;;;;;;7.77;4.40;;;;;;;13.93;84.05;95024.81;5117947;27;20642;-77
2021/08/01 05:30:29;;;;;;;7.17;4.33;;;;;;;14.03;83.67;95027.16;5101443;27;20187;-78
2021/08/01 05:32:55;;;;;;;8.57;4.17;;;;;;;14.13;83.59;95025.06;5118114;27;20326;-79
2021/08/01 05:35:20;;;;;;;8.20;4.20;;;;;;;14.14;82.91;95027.53;5100873;27;20719;-78
2021/08/01 05:37:45;;;;;;;6.23;4.20;;;;;;;14.14;82.45;95024.09;5117918;27;20206;-78
2021/08/01 05:40:11;;;;;;;6.53;4.83;;;;;;;14.16;82.84;95035.97;5100935;27;20639;-78
2021/08/01 05:42:37;;;;;;;6.80;4.70;;;;;;;14.19;82.73;95029.56;5101290;27;20279;-78
2021/08/01 05:45:04;;;;;;;5.30;4.27;;;;;;;14.16;82.55;95027.34;5119314;27;20211;-78
2021/08/01 05:47:29;;;;;;;6.37;4.13;;;;;;;14.31;82.13;95030.75;5112515;27;20194;-78
2021/08/01 05:49:55;;;;;;;7.43;4.00;;;;;;;14.42;82.18;95032.88;5102880;27;20183;-78
2021/08/01 05:52:20;;;;;;;5.53;4.00;;;;;;;14.48;82.08;95031.34;5117293;27;20175;-76
2021/08/01 05:54:45;;;;;;;6.27;4.63;;;;;;;14.59;82.41;95027.47;5136070;27;20195;-77
2021/08/01 05:57:11;;;;;;;9.50;5.03;;;;;;;14.58;81.68;95026.66;5117779;27;20266;-78
2021/08/01 05:59:36;;;;;;;9.00;4.00;;;;;;;14.56;81.83;95033.03;5117564;27;20175;-77
2021/08/01 06:02:01;;;;;;;6.30;4.10;;;;;;;14.67;81.60;95032.59;5135728;27;20171;-77
2021/08/01 06:04:27;;;;;;;5.07;4.00;;;;;;;14.58;81.67;95031.09;5117201;27;20725;-76
2021/08/01 06:06:52;;;;;;;10.23;3.77;;;;;;;14.72;81.70;95031.00;5116504;27;20186;-77
2021/08/01 06:09:17;;;;;;;6.70;4.23;;;;;;;14.82;81.60;95037.75;5116818;27;20192;-76
2021/08/01 06:11:42;;;;;;;4.60;4.00;;;;;;;14.90;81.42;95040.25;5134811;27;20650;-75
2021/08/01 06:14:08;;;;;;;4.30;3.87;;;;;;;14.83;81.08;95048.00;5131125;27;20183;-76
2021/08/01 06:16:34;;;;;;;7.70;4.20;;;;;;;14.85;81.25;95053.88;5129613;27;20183;-77
2021/08/01 06:19:00;;;;;;;5.27;4.00;;;;;;;14.97;80.74;95056.81;5115047;27;20183;-75
2021/08/01 06:21:27;;;;;;;4.50;3.80;;;;;;;14.99;80.77;95041.72;5099053;27;20178;-76
2021/08/01 06:23:53;;;;;;;4.40;3.77;;;;;;;15.09;80.67;95041.41;5116610;27;20261;-77
2021/08/01 06:26:20;;;;;;;7.67;4.33;;;;;;;14.96;79.74;95055.19;5116530;27;20661;-77
2021/08/01 06:28:46;;;;;;;7.00;3.80;;;;;;;14.98;79.70;95056.63;5099246;27;20232;-76
2021/08/01 06:31:11;;;;;;;6.17;3.87;;;;;;;15.04;79.56;95056.88;5115407;27;20175;-76
2021/08/01 06:33:38;;;;;;;5.38;3.90;;;;;;;15.06;79.17;95044.41;5099252;27;20182;-77
2021/08/01 06:36:05;;;;;;;5.28;4.13;;;;;;;15.07;79.51;95061.72;5116426;27;20220;-77
2021/08/01 06:38:31;;;;;;;7.47;4.10;;;;;;;15.29;79.31;95055.50;5116614;27;20540;-77
2021/08/01 06:40:56;;;;;;;6.45;4.00;;;;;;;15.45;79.35;95055.19;5099313;27;20190;-77
2021/08/01 06:43:21;;;;;;;5.15;3.90;;;;;;;15.55;78.75;95055.72;5135184;27;20199;-77
2021/08/01 06:45:47;;;;;;;5.63;4.00;;;;;;;15.56;78.00;95066.97;5100350;27;20306;-77
2021/08/01 06:48:12;;;;;;;4.88;4.00;;;;;;;15.62;77.61;95062.81;5117579;27;20175;-78
2021/08/01 06:50:37;;;;;;;5.65;3.75;;;;;;;15.73;76.90;95065.72;5136650;27;20240;-77
2021/08/01 06:53:03;;;;;;;4.05;3.60;;;;;;;15.76;76.44;95065.34;5136107;27;20702;-78
2021/08/01 06:55:28;;;;;;;5.25;3.97;;;;;;;15.79;77.20;95064.94;5116972;27;20302;-78
2021/08/01 06:57:54;;;;;;;5.95;3.97;;;;;;;15.52;77.01;95058.69;5099284;27;20179;-77
2021/08/01 07:00:22;;;;;;;4.40;3.47;;;;;;;15.21;78.02;95063.47;5115763;27;20623;-77
2021/08/01 07:02:54;;;;;;;7.88;3.88;;;;;;;15.12;78.17;95073.25;5098578;27;20183;-77
2021/08/01 07:05:20;;;;;;;4.70;3.80;;;;;;;15.02;79.27;95085.81;5098382;27;20219;-77
2021/08/01 07:07:45;;;;;;;5.93;3.95;;;;;;;14.81;79.80;95078.75;5115715;27;20938;-78
2021/08/01 07:10:11;;;;;;;6.47;4.00;;;;;;;14.80;79.90;95077.13;5115722;27;20246;-77
2021/08/01 07:12:41;;;;;;;5.40;4.07;;;;;;;14.79;80.03;95085.16;5098221;27;20266;-77
2021/08/01 07:15:16;;;;;;;7.15;4.20;;;;;;;14.65;79.56;95085.00;5098923;27;20199;-76
2021/08/01 07:17:42;;;;;;;5.07;3.73;;;;;;;14.57;79.93;95084.31;5133638;27;20540;-77
2021/08/01 07:20:09;;;;;;;6.50;4.07;;;;;;;14.52;80.45;95078.84;5121389;27;20195;-78
2021/08/01 07:22:34;;;;;;;5.53;4.50;;;;;;;14.50;80.78;95080.81;5103716;27;20183;-77
2021/08/01 07:25:00;;;;;;;7.17;3.97;;;;;;;14.79;80.60;95075.53;5094821;28;20226;-77
2021/08/01 07:27:25;;;;;;;5.83;4.07;;;;;;;14.88;80.14;95084.88;5097864;28;20212;-77
2021/08/01 07:29:51;;;;;;;6.63;4.60;;;;;;;15.10;80.31;95090.91;5115726;27;20183;-77
2021/08/01 07:32:16;;;;;;;8.02;4.10;;;;;;;15.29;79.45;95076.44;5132340;27;20186;-78
2021/08/01 07:34:42;;;;;;;7.27;4.10;;;;;;;15.42;79.06;95081.75;5103380;27;20679;-77
2021/08/01 07:37:07;;;;;;;6.47;4.03;;;;;;;15.43;77.83;95080.75;5105888;27;20205;-77
2021/08/01 07:39:32;;;;;;;6.05;4.20;;;;;;;15.60;77.60;95081.28;5125509;27;20180;-77
2021/08/01 07:41:57;;;;;;;7.80;4.22;;;;;;;15.51;77.67;95085.84;5110714;28;20212;-77
2021/08/01 07:44:25;;;;;;;5.70;4.03;;;;;;;15.47;77.77;95079.41;5077049;28;20238;-76
2021/08/01 07:46:50;;;;;;;7.80;4.13;;;;;;;15.67;77.37;95089.25;5078070;28;20549;-78
2021/08/01 07:49:15;;;;;;;6.88;4.28;;;;;;;15.56;77.00;95095.78;5094857;28;20251;-78
2021/08/01 07:51:41;;;;;;;7.32;4.10;;;;;;;15.44;76.99;95090.22;5094762;28;20180;-78
2021/08/01 07:54:06;;;;;;;10.75;4.55;;;;;;;15.50;77.62;95102.56;5113039;28;20802;-77
2021/08/01 07:56:31;;;;;;;6.90;4.40;;;;;;;15.43;77.20;95093.03;5112641;28;20288;-78
2021/08/01 07:58:57;;;;;;;9.60;4.32;;;;;;;15.40;77.48;95109.13;5094535;28;20592;-78
2021/08/01 08:01:22;;;;;;;5.80;4.18;;;;;;;15.42;77.66;95105.31;5126165;27;20191;-78
2021/08/01 08:03:47;;;;;;;7.60;4.15;;;;;;;15.51;77.83;95096.31;5097934;28;20206;-78
2021/08/01 08:06:13;;;;;;;5.13;4.32;;;;;;;15.65;77.38;95099.09;5089884;27;20238;-78
2021/08/01 08:08:38;;;;;;;7.90;4.65;;;;;;;15.62;77.05;95095.03;5117794;27;20222;-78
2021/08/01 08:11:03;;;;;;;8.75;4.18;;;;;;;15.50;76.57;95099.13;5097951;27;20199;-79
2021/08/01 08:13:29;;;;;;;7.93;4.47;;;;;;;15.79;76.35;95100.78;5115077;27;20199;-78
2021/08/01 08:15:56;;;;;;;5.72;4.40;;;;;;;16.15;75.67;95093.56;5114590;28;20256;-78
2021/08/01 08:18:21;;;;;;;5.60;4.15;;;;;;;16.19;74.98;95098.44;5098528;27;20186;-78
2021/08/01 08:20:46;;;;;;;6.05;4.20;;;;;;;16.31;75.03;95104.75;5115704;27;20266;-79
2021/08/01 08:23:12;;;;;;;4.85;4.18;;;;;;;16.47;74.03;95104.44;5099119;28;20182;-79
2021/08/01 08:25:37;;;;;;;5.25;4.22;;;;;;;16.41;73.87;95103.38;5115719;28;20230;-79
2021/08/01 08:28:02;;;;;;;7.20;4.60;;;;;;;16.81;73.22;95108.03;5115625;28;20175;-79
2021/08/01 08:30:28;;;;;;;7.00;4.40;;;;;;;17.09;72.24;95113.97;5134552;28;20172;-78
2021/08/01 08:32:54;;;;;;;6.47;3.90;;;;;;;17.09;71.88;95116.59;5117181;28;20201;-78
2021/08/01 08:35:19;;;;;;;4.68;3.92;;;;;;;16.88;71.35;95114.13;5101115;28;20670;-80
2021/08/01 08:37:46;;;;;;;4.65;3.58;;;;;;;17.26;70.03;95111.78;5098934;28;20214;-78
2021/08/01 08:40:13;;;;;;;5.38;4.03;;;;;;;17.46;71.28;95117.06;5117090;28;20167;-78
2021/08/01 08:42:39;;;;;;;6.55;4.03;;;;;;;17.76;71.06;95112.28;5098943;28;20167;-77
2021/08/01 08:45:05;;;;;;;9.48;4.55;;;;;;;17.56;70.81;95120.09;5133122;28;20230;-77
2021/08/01 08:47:36;;;;;;;6.18;4.32;;;;;;;17.60;70.81;95112.63;5140275;28;20175;-78
2021/08/01 08:50:02;;;;;;;6.63;3.97;;;;;;;17.52;71.80;95116.25;5109469;28;20226;-79
2021/08/01 08:52:28;;;;;;;6.32;4.10;;;;;;;17.79;70.95;95117.91;5097991;28;20179;-77
2021/08/01 08:54:55;;;;;;;7.43;4.22;;;;;;;17.71;70.89;95115.50;5100187;27;20191;-77
2021/08/01 08:57:29;;;;;;;4.63;4.00;;;;;;;17.97;71.21;95121.75;5102889;27;20182;-77
2021/08/01 09:00:16;;;;;;;7.85;4.18;;;;;;;17.93;69.83;95125.78;5102933;27;20175;-78
2021/08/01 09:02:42;;;;;;;6.18;4.22;;;;;;;18.07;69.06;95130.03;5104498;27;20179;-79
2021/08/01 09:05:09;;;;;;;4.65;4.15;;;;;;;18.28;69.19;95129.78;5122084;27;20214;-79
2021/08/01 09:07:35;;;;;;;4.72;4.32;;;;;;;18.18;69.92;95133.84;5143194;27;20181;-75
2021/08/01 09:10:00;;;;;;;7.93;4.30;;;;;;;18.34;67.85;95128.16;5143977;27;20178;-76
2021/08/01 09:12:25;;;;;;;9.75;4.55;;;;;;;18.39;68.22;95136.25;5143403;27;20160;-77
2021/08/01 09:15:10;;;;;;;4.60;4.05;;;;;;;18.46;67.54;95134.38;5161048;27;20195;-78
2021/08/01 09:17:37;;;;;;;6.28;4.28;;;;;;;18.60;67.67;95143.88;5142160;27;20178;-78
2021/08/01 09:20:14;;;;;;;5.45;4.15;;;;;;;18.79;67.19;95144.03;5129053;27;20222;-77
2021/08/01 09:22:39;;;;;;;6.47;4.53;;;;;;;18.70;67.02;95146.09;5118352;27;20167;-78
2021/08/01 09:25:16;;;;;;;4.35;3.95;;;;;;;18.58;65.70;95142.47;5118424;27;20236;-79
2021/08/01 09:27:42;;;;;;;6.05;4.53;;;;;;;18.30;67.99;95138.28;5100766;27;20178;-78
2021/08/01 09:30:08;;;;;;;4.70;3.92;;;;;;;18.40;68.39;95149.19;5117934;27;20702;-80
2021/08/01 09:32:46;;;;;;;5.25;4.20;;;;;;;18.54;67.23;95159.66;5118020;27;20183;-80
2021/08/01 09:35:21;;;;;;;8.40;4.18;;;;;;;18.75;66.69;95158.63;5118432;27;20183;-79
2021/08/01 09:37:55;;;;;;;6.78;4.30;;;;;;;18.68;65.89;95158.66;5101923;27;20170;-79
2021/08/01 09:40:27;;;;;;;5.68;4.40;;;;;;;18.89;64.87;95163.63;5118759;27;20262;-79
2021/08/01 09:42:52;;;;;;;7.10;4.95;;;;;;;19.00;64.99;95167.44;5100945;27;20654;-79
2021/08/01 09:45:21;;;;;;;4.97;4.13;;;;;;;19.03;64.74;95166.22;5118963;27;20218;-79
2021/08/01 09:47:49;;;;;;;5.50;3.70;;;;;;;19.19;65.60;95165.75;5109761;27;20179;-78
2021/08/01 09:50:17;;;;;;;4.65;3.70;;;;;;;19.23;64.33;95165.09;5116142;27;20174;-79
2021/08/01 09:52:43;;;;;;;6.25;4.32;;;;;;;19.29;63.86;95160.00;5101333;27;20171;-80
2021/08/01 09:55:16;;;;;;;5.85;4.22;;;;;;;19.56;63.38;95161.50;5119140;27;20222;-80
2021/08/01 09:57:48;;;;;;;4.57;3.85;;;;;;;19.14;63.44;95155.03;5117674;27;20227;-79
2021/08/01 10:00:14;;;;;;;5.07;4.15;;;;;;;19.36;63.22;95155.53;5119517;27;20179;-78
2021/08/01 10:02:40;;;;;;;4.88;3.75;;;;;;;19.46;63.07;95153.22;5101902;27;20178;-79
2021/08/01 10:05:20;;;;;;;5.20;4.10;;;;;;;19.66;63.27;95155.75;5136571;27;20207;-79
2021/08/01 10:07:47;;;;;;;5.18;4.18;;;;;;;19.90;61.82;95141.81;5116903;27;20217;-77
2021/08/01 10:10:17;;;;;;;5.28;4.10;;;;;;;19.80;62.13;95150.19;5118617;27;20175;-79
2021/08/01 10:12:48;;;;;;;5.57;4.20;;;;;;;19.74;62.06;95152.88;5119395;27;20179;-78
2021/08/01 10:15:13;;;;;;;7.57;4.50;;;;;;;19.76;61.75;95146.34;5101946;27;20241;-79
2021/08/01 10:17:39;;;;;;;6.97;4.20;;;;;;;19.98;61.34;95146.00;5098100;28;20168;-79
2021/08/01 10:20:06;;;;;;;7.03;4.25;;;;;;;19.90;61.84;95157.63;5101934;27;20206;-77
2021/08/01 10:22:32;;;;;;;7.82;4.03;;;;;;;19.60;60.54;95148.69;5103157;27;20187;-80
2021/08/01 10:25:01;;;;;;;4.50;3.80;;;;;;;19.45;60.59;95143.72;5099654;27;20200;-77
2021/08/01 10:27:27;;;;;;;7.35;4.38;;;;;;;19.31;61.71;95142.19;5118667;27;20167;-77
2021/08/01 10:29:55;;;;;;;4.93;4.03;;;;;;;19.85;61.27;95146.91;5101141;27;20183;-77
2021/08/01 10:32:22;;;;;;;4.07;3.55;;;;;;;19.67;60.49;95146.84;5102665;27;20175;-78
2021/08/01 10:35:01;;;;;;;6.50;4.35;;;;;;;19.63;60.83;95145.66;5096646;28;20184;-78
2021/08/01 10:37:31;;;;;;;4.63;4.22;;;;;;;19.53;59.64;95146.91;5088982;27;20371;-77
2021/08/01 10:39:57;;;;;;;6.20;3.28;;;;;;;19.35;61.14;95146.81;5096646;28;20164;-78
2021/08/01 10:42:27;;;;;;;7.07;3.85;;;;;;;19.77;60.36;95141.91;5079955;28;20172;-79
2021/08/01 10:44:53;;;;;;;4.00;3.67;;;;;;;20.14;59.79;95137.53;5079763;28;20211;-78
2021/08/01 10:47:19;;;;;;;4.22;3.83;;;;;;;20.60;58.46;95131.03;5090912;27;20262;-78
2021/08/01 10:49:47;;;;;;;3.60;3.00;;;;;;;20.35;56.83;95134.50;5117136;27;20178;-78
2021/08/01 10:52:16;;;;;;;3.63;3.03;;;;;;;20.48;53.55;95130.94;5116552;27;20168;-76
2021/08/01 10:54:58;;;;;;;3.63;3.33;;;;;;;20.16;55.97;95137.34;5116789;27;20658;-77
2021/08/01 10:57:28;;;;;;;6.20;2.92;;;;;;;20.44;54.81;95132.41;5099962;27;20228;-79
2021/08/01 10:59:53;;;;;;;3.25;2.95;;;;;;;20.23;54.02;95132.78;5116846;27;20175;-79
2021/08/01 11:02:24;;;;;;;2.95;2.70;;;;;;;20.48;54.48;95136.22;5116026;27;20190;-79
2021/08/01 11:04:53;;;;;;;3.80;2.38;;;;;;;20.56;53.86;95135.94;5116781;27;20687;-77
2021/08/01 11:07:27;;;;;;;3.88;2.75;;;;;;;20.20;54.85;95130.59;5135198;27;20653;-79
2021/08/01 11:10:04;;;;;;;3.25;2.30;;;;;;;20.74;51.78;95131.69;5135050;27;20409;-79
2021/08/01 11:12:35;;;;;;;3.00;2.47;;;;;;;20.67;50.73;95130.94;5134863;27;20174;-77
2021/08/01 11:15:06;;;;;;;2.90;2.60;;;;;;;20.88;51.46;95131.31;5116678;27;20187;-78
2021/08/01 11:17:46;;;;;;;3.72;2.40;;;;;;;21.16;51.05;95137.88;5134075;27;20219;-77
2021/08/01 11:20:23;;;;;;;3.28;2.30;;;;;;;21.25;49.11;95127.81;5134736;27;20613;-79
2021/08/01 11:22:56;;;;;;;3.78;2.42;;;;;;;21.01;48.21;95125.06;5116013;27;20278;-79
2021/08/01 11:25:26;;;;;;;2.35;2.08;;;;;;;21.07;50.32;95118.09;5116355;27;20294;-79
2021/08/01 11:28:10;;;;;;;3.88;2.30;;;;;;;21.26;50.52;95118.84;5116028;27;20167;-79
2021/08/01 11:30:53;;;;;;;3.65;2.40;;;;;;;21.01;49.68;95119.78;5095898;28;20180;-78
2021/08/01 11:33:42;;;;;;;2.28;2.00;;;;;;;21.50;49.21;95120.56;5095667;28;20527;-79
2021/08/01 11:36:13;;;;;;;2.42;2.08;;;;;;;21.45;49.16;95128.34;5113651;28;20188;-78